Time;durP1;ratioP1;P1;durP2;ratioP2;P2;SDS_P1;SDS_P2;PMS_P1;PMS_P2;Temp;Humidity;BMP_temperature;BMP_pressure;BME280_temperature;BME280_humidity;BME280_pressure;Samples;Min_cycle;Max_cycle;Signal;HPM_P1;HPM_P2
2021/12/22 00:01:01;;;;;;;3.75;3.45;;;22.20;43.80;;;;;;5054940;28;20592;-71
2021/12/22 00:03:27;;;;;;;4.95;3.78;;;22.20;43.90;;;;;;5070958;28;20213;-71
2021/12/22 00:05:53;;;;;;;3.67;3.38;;;22.20;43.80;;;;;;5071293;28;20193;-71
2021/12/22 00:08:19;;;;;;;3.55;3.25;;;22.20;43.80;;;;;;5054478;28;20170;-72
2021/12/22 00:10:46;;;;;;;3.63;3.33;;;22.20;43.80;;;;;;5038130;28;20186;-71
2021/12/22 00:13:13;;;;;;;3.38;3.08;;;22.20;43.80;;;;;;5072146;28;20217;-71
2021/12/22 00:15:38;;;;;;;4.10;3.80;;;22.20;43.80;;;;;;5038221;28;20193;-71
2021/12/22 00:18:05;;;;;;;3.55;3.22;;;22.20;43.80;;;;;;5037736;28;20189;-71
2021/12/22 00:20:31;;;;;;;4.65;4.22;;;22.20;43.70;;;;;;5054550;28;20250;-72
2021/12/22 00:22:58;;;;;;;5.55;5.05;;;22.20;43.70;;;;;;5054262;28;20354;-71
2021/12/22 00:25:25;;;;;;;5.00;4.60;;;22.20;43.70;;;;;;5055100;28;20563;-71
2021/12/22 00:27:54;;;;;;;4.55;4.15;;;22.20;43.70;;;;;;5054140;28;20181;-71
2021/12/22 00:30:20;;;;;;;4.57;4.13;;;22.20;43.70;;;;;;5037587;28;20285;-71
2021/12/22 00:32:51;;;;;;;4.50;4.10;;;22.20;43.70;;;;;;5054251;28;20224;-71
2021/12/22 00:35:20;;;;;;;4.47;4.07;;;22.20;43.70;;;;;;5054138;28;20188;-71
2021/12/22 00:37:47;;;;;;;4.90;4.50;;;22.20;43.70;;;;;;5070881;28;20207;-72
2021/12/22 00:40:13;;;;;;;5.10;4.70;;;22.20;43.50;;;;;;5054167;28;20189;-71
2021/12/22 00:42:39;;;;;;;5.07;4.57;;;22.20;43.50;;;;;;5054173;28;20222;-71
2021/12/22 00:45:05;;;;;;;4.20;3.90;;;22.20;43.60;;;;;;5054458;28;20272;-71
2021/12/22 00:47:32;;;;;;;4.97;4.05;;;22.20;43.50;;;;;;5054501;28;20200;-70
2021/12/22 00:50:00;;;;;;;4.72;4.25;;;22.20;43.60;;;;;;5071435;28;20197;-69
2021/12/22 00:52:27;;;;;;;5.43;4.25;;;22.20;43.60;;;;;;5071451;28;20296;-71
2021/12/22 00:54:53;;;;;;;4.50;4.10;;;22.20;43.40;;;;;;5037851;28;20205;-71
2021/12/22 00:57:19;;;;;;;4.45;4.07;;;22.20;43.60;;;;;;5054135;28;20199;-70
2021/12/22 00:59:47;;;;;;;4.05;3.75;;;22.20;43.40;;;;;;5054506;28;20221;-70
2021/12/22 01:02:17;;;;;;;3.75;3.45;;;22.20;43.60;;;;;;5071314;28;20220;-70
2021/12/22 01:04:43;;;;;;;4.20;3.83;;;22.20;43.50;;;;;;5037851;28;20193;-70
2021/12/22 01:07:09;;;;;;;3.88;3.58;;;22.20;43.60;;;;;;5054332;28;20185;-70
2021/12/22 01:09:36;;;;;;;3.97;3.58;;;22.20;43.50;;;;;;5037553;28;20251;-70
2021/12/22 01:12:04;;;;;;;3.63;3.33;;;22.20;43.40;;;;;;5036633;28;20224;-70
2021/12/22 01:14:31;;;;;;;3.55;3.25;;;22.20;43.40;;;;;;5054347;28;20220;-70
2021/12/22 01:17:01;;;;;;;3.90;3.45;;;22.20;43.40;;;;;;5072269;28;20239;-70
2021/12/22 01:19:37;;;;;;;3.80;3.50;;;22.20;43.40;;;;;;5054379;28;20220;-70
2021/12/22 01:24:59;;;;;;;3.92;3.63;;;22.20;43.40;;;;;;5043858;28;20202;-70
2021/12/22 01:27:36;;;;;;;3.80;3.50;;;22.20;43.40;;;;;;5037849;28;20192;-71
2021/12/22 01:30:42;;;;;;;3.85;3.55;;;22.20;43.40;;;;;;5054313;28;20231;-71
2021/12/22 01:33:08;;;;;;;4.18;3.80;;;22.20;43.40;;;;;;5053419;28;20216;-70
2021/12/22 01:35:37;;;;;;;3.80;3.50;;;22.20;43.40;;;;;;5054414;28;20620;-70
2021/12/22 01:38:05;;;;;;;3.72;3.42;;;22.20;43.40;;;;;;5053692;28;20272;-70
2021/12/22 01:40:38;;;;;;;3.40;3.10;;;22.20;43.40;;;;;;5071958;28;20190;-70
2021/12/22 01:43:05;;;;;;;3.95;3.65;;;22.20;43.40;;;;;;5037652;28;20218;-70
2021/12/22 01:49:11;;;;;;;3.75;3.45;;;22.20;43.40;;;;;;4993388;28;20269;-70
2021/12/22 01:52:01;;;;;;;3.58;3.28;;;22.20;43.40;;;;;;5010105;28;20272;-70
2021/12/22 01:54:49;;;;;;;3.85;3.45;;;22.20;43.40;;;;;;5044123;28;20224;-70
2021/12/22 01:57:18;;;;;;;4.03;3.72;;;22.20;43.40;;;;;;5053731;28;20622;-71
2021/12/22 01:59:47;;;;;;;5.03;4.63;;;22.20;43.40;;;;;;5071652;28;20197;-70
2021/12/22 02:02:15;;;;;;;4.03;3.67;;;22.20;43.40;;;;;;5037020;28;20288;-70
2021/12/22 02:04:41;;;;;;;3.97;3.67;;;22.20;43.40;;;;;;5071818;28;20178;-70
2021/12/22 02:07:08;;;;;;;4.13;3.83;;;22.10;43.30;;;;;;5070510;28;20188;-71
2021/12/22 02:10:02;;;;;;;4.20;3.90;;;22.10;43.30;;;;;;5055179;28;20174;-70
2021/12/22 02:12:32;;;;;;;3.78;3.47;;;22.10;43.30;;;;;;5057781;28;20209;-70
2021/12/22 02:14:58;;;;;;;3.13;2.92;;;22.20;43.40;;;;;;5057570;28;20182;-70
2021/12/22 02:17:26;;;;;;;3.40;3.10;;;22.20;43.40;;;;;;5041047;28;20185;-69
2021/12/22 02:19:52;;;;;;;3.55;3.25;;;22.20;43.40;;;;;;5040698;28;20567;-70
2021/12/22 02:22:18;;;;;;;3.78;3.25;;;22.20;43.40;;;;;;5057286;28;20274;-70
2021/12/22 02:24:56;;;;;;;3.65;3.35;;;22.20;43.40;;;;;;5040598;28;20288;-71
2021/12/22 02:29:58;;;;;;;3.70;3.42;;;22.20;43.40;;;;;;5057139;28;20178;-70
2021/12/22 02:35:08;;;;;;;4.78;4.38;;;22.20;43.40;;;;;;5057424;28;20240;-70
2021/12/22 02:37:42;;;;;;;4.05;3.75;;;22.20;43.40;;;;;;5040626;28;20178;-70
2021/12/22 02:40:12;;;;;;;3.58;3.28;;;22.10;43.30;;;;;;5057030;28;20265;-70
2021/12/22 02:42:38;;;;;;;3.50;3.25;;;22.20;43.40;;;;;;5057111;28;20218;-70
2021/12/22 02:45:13;;;;;;;3.65;3.35;;;22.20;43.40;;;;;;5057020;28;20186;-70
2021/12/22 02:47:39;;;;;;;3.45;3.20;;;22.20;43.40;;;;;;5056852;28;20170;-70
2021/12/22 02:50:07;;;;;;;3.80;3.50;;;22.20;43.40;;;;;;5057310;28;20203;-70
2021/12/22 02:52:50;;;;;;;3.65;3.20;;;22.20;43.40;;;;;;5040049;28;20216;-71
2021/12/22 02:55:16;;;;;;;4.03;3.63;;;22.20;43.40;;;;;;5056646;28;20181;-70
2021/12/22 02:57:48;;;;;;;3.40;3.13;;;22.20;43.40;;;;;;5056922;28;20303;-70
2021/12/22 03:00:33;;;;;;;4.13;3.72;;;22.20;43.30;;;;;;5040252;28;20181;-70
2021/12/22 03:03:27;;;;;;;4.18;3.85;;;22.20;43.30;;;;;;5040275;28;20209;-70
2021/12/22 03:05:54;;;;;;;3.17;2.97;;;22.20;43.10;;;;;;5074537;28;20189;-70
2021/12/22 03:08:19;;;;;;;3.45;3.20;;;22.10;43.30;;;;;;5040162;28;20307;-70
2021/12/22 03:10:45;;;;;;;3.78;3.47;;;22.10;43.30;;;;;;5039902;28;20198;-70
2021/12/22 03:13:11;;;;;;;3.15;2.90;;;22.10;43.30;;;;;;5074115;28;20205;-70
2021/12/22 03:15:36;;;;;;;3.13;2.92;;;22.20;43.40;;;;;;5056451;28;20177;-70
2021/12/22 03:18:06;;;;;;;3.60;3.30;;;22.10;43.20;;;;;;5074088;28;20193;-71
2021/12/22 03:20:32;;;;;;;3.55;3.25;;;22.20;43.20;;;;;;5039880;28;20177;-70
2021/12/22 03:22:58;;;;;;;2.85;2.63;;;22.20;43.30;;;;;;5056279;28;20213;-70
2021/12/22 03:25:27;;;;;;;2.97;2.78;;;22.20;43.20;;;;;;5056232;28;20189;-71
2021/12/22 03:27:57;;;;;;;3.47;3.17;;;22.20;43.20;;;;;;5039499;28;20267;-70
2021/12/22 03:30:24;;;;;;;3.55;3.25;;;22.20;43.10;;;;;;5039760;28;20193;-70
2021/12/22 03:32:50;;;;;;;3.13;2.92;;;22.20;43.00;;;;;;5039347;28;20677;-70
2021/12/22 03:35:19;;;;;;;3.30;3.10;;;22.20;43.10;;;;;;5039659;28;20189;-71
2021/12/22 03:37:52;;;;;;;3.97;3.67;;;22.20;43.00;;;;;;5056004;28;20236;-70
2021/12/22 03:40:20;;;;;;;3.20;3.00;;;22.10;43.00;;;;;;5053884;28;20610;-70
2021/12/22 03:42:47;;;;;;;3.90;3.60;;;22.10;42.90;;;;;;5055864;28;20201;-70
2021/12/22 03:45:15;;;;;;;3.75;3.45;;;22.10;42.80;;;;;;5072354;28;20229;-70
2021/12/22 03:47:41;;;;;;;3.70;3.40;;;22.10;42.90;;;;;;5055701;28;20611;-70
2021/12/22 03:50:08;;;;;;;3.45;3.20;;;22.10;42.90;;;;;;5055785;28;20181;-71
2021/12/22 03:52:35;;;;;;;3.22;2.97;;;22.10;43.00;;;;;;5055547;28;20210;-70
2021/12/22 03:55:02;;;;;;;3.30;3.00;;;22.10;43.00;;;;;;5072434;28;20268;-71
2021/12/22 03:57:28;;;;;;;3.60;3.30;;;22.10;42.90;;;;;;5071952;28;20217;-69
2021/12/22 03:59:58;;;;;;;3.40;3.10;;;22.10;43.00;;;;;;5055599;28;20239;-70
2021/12/22 04:02:24;;;;;;;3.13;2.92;;;22.10;43.00;;;;;;5072290;28;20259;-70
2021/12/22 04:04:50;;;;;;;3.03;2.83;;;22.10;43.00;;;;;;5055530;28;20182;-70
2021/12/22 04:07:18;;;;;;;3.75;3.33;;;22.20;43.00;;;;;;5055523;28;20181;-70
2021/12/22 04:09:45;;;;;;;3.40;3.10;;;22.20;43.00;;;;;;5072200;28;20173;-70
2021/12/22 04:12:11;;;;;;;3.28;3.05;;;22.20;42.90;;;;;;5038796;28;20220;-70
2021/12/22 04:14:38;;;;;;;3.60;3.30;;;22.10;42.90;;;;;;5073078;28;20211;-70
2021/12/22 04:17:04;;;;;;;3.70;3.40;;;22.20;43.00;;;;;;5071727;28;20224;-70
2021/12/22 04:19:30;;;;;;;3.08;2.88;;;22.20;42.90;;;;;;5054918;28;20186;-70
2021/12/22 04:21:56;;;;;;;3.13;2.92;;;22.20;42.90;;;;;;5038623;28;20208;-70
2021/12/22 04:24:23;;;;;;;3.55;3.25;;;22.20;42.90;;;;;;5055117;28;20193;-70
2021/12/22 04:26:51;;;;;;;3.30;3.10;;;22.20;42.90;;;;;;5071729;28;20177;-70
2021/12/22 04:29:17;;;;;;;3.95;3.65;;;22.20;42.90;;;;;;5071284;28;20177;-71
2021/12/22 04:31:44;;;;;;;3.53;3.22;;;22.10;42.80;;;;;;5054440;28;20201;-70
2021/12/22 04:34:10;;;;;;;3.35;3.05;;;22.10;42.70;;;;;;5055387;28;20186;-70
2021/12/22 04:36:38;;;;;;;3.53;3.25;;;22.10;42.80;;;;;;5054884;28;20181;-70
2021/12/22 04:39:06;;;;;;;3.17;2.97;;;22.10;42.80;;;;;;5072516;28;20221;-71
2021/12/22 04:41:32;;;;;;;3.35;3.10;;;22.10;42.80;;;;;;5054762;28;20193;-71
2021/12/22 04:43:58;;;;;;;3.10;2.90;;;22.10;42.80;;;;;;5072575;28;20275;-71
2021/12/22 04:46:25;;;;;;;3.65;3.35;;;22.10;42.80;;;;;;5054639;28;20213;-70
2021/12/22 04:48:51;;;;;;;3.10;2.90;;;22.10;42.80;;;;;;5054622;28;20173;-70
2021/12/22 04:51:29;;;;;;;2.92;2.72;;;22.10;42.70;;;;;;5071501;28;20248;-70
2021/12/22 04:54:04;;;;;;;3.03;2.80;;;22.10;42.80;;;;;;5054962;28;20186;-70
2021/12/22 04:56:30;;;;;;;2.88;2.67;;;22.10;42.80;;;;;;5072544;28;20702;-70
2021/12/22 04:58:56;;;;;;;2.90;2.70;;;22.10;42.70;;;;;;5054420;28;20213;-70
2021/12/22 05:01:21;;;;;;;3.00;2.80;;;22.10;42.70;;;;;;5054703;28;20228;-69
2021/12/22 05:03:47;;;;;;;3.35;3.05;;;22.20;42.80;;;;;;5071152;28;20213;-71
2021/12/22 05:06:13;;;;;;;3.28;3.08;;;22.10;42.80;;;;;;5054289;28;20190;-70
2021/12/22 05:08:39;;;;;;;3.72;3.42;;;22.10;42.80;;;;;;5053976;28;20177;-70
2021/12/22 05:11:04;;;;;;;2.97;2.78;;;22.20;42.70;;;;;;5037930;28;20208;-70
2021/12/22 05:13:33;;;;;;;3.25;3.05;;;22.10;42.60;;;;;;5105171;22;20229;-71
2021/12/22 05:15:59;;;;;;;3.58;3.28;;;22.10;42.70;;;;;;5056879;28;20276;-71
2021/12/22 05:18:47;;;;;;;2.95;2.75;;;22.10;42.60;;;;;;5056923;28;20276;-71
2021/12/22 05:21:10;;;;;;;3.20;2.90;;;22.20;42.70;;;;;;5073397;28;20192;-71
2021/12/22 05:23:36;;;;;;;2.92;2.60;;;22.20;42.70;;;;;;5073624;28;20212;-71
2021/12/22 05:26:01;;;;;;;3.25;2.95;;;22.10;42.40;;;;;;5073591;28;20188;-71
2021/12/22 05:28:27;;;;;;;3.33;3.03;;;22.10;42.60;;;;;;5073530;28;20212;-71
2021/12/22 05:30:53;;;;;;;2.90;2.70;;;22.20;42.70;;;;;;5070062;28;20186;-71
2021/12/22 05:33:18;;;;;;;3.10;2.90;;;22.10;42.60;;;;;;5072005;28;20205;-71
2021/12/22 05:35:44;;;;;;;3.08;2.83;;;22.10;42.60;;;;;;5054127;28;20193;-71
2021/12/22 05:38:10;;;;;;;3.03;2.80;;;22.10;42.60;;;;;;5070753;28;20253;-71
2021/12/22 05:40:36;;;;;;;2.88;2.67;;;22.20;42.70;;;;;;5054006;28;20424;-71
2021/12/22 05:43:02;;;;;;;2.92;2.70;;;22.10;42.60;;;;;;5053847;28;20217;-70
2021/12/22 05:45:28;;;;;;;2.90;2.70;;;22.10;42.60;;;;;;5040795;28;20237;-71
2021/12/22 05:47:54;;;;;;;2.70;2.50;;;22.10;42.60;;;;;;5057726;28;20178;-70
2021/12/22 05:50:22;;;;;;;2.70;2.50;;;22.10;42.70;;;;;;5058139;28;20597;-71
2021/12/22 05:52:48;;;;;;;3.03;2.83;;;22.10;42.60;;;;;;5074436;28;20744;-70
2021/12/22 05:55:14;;;;;;;2.85;2.65;;;22.10;42.60;;;;;;5058092;28;20189;-71
2021/12/22 05:57:40;;;;;;;3.25;2.95;;;22.10;42.50;;;;;;5075485;28;20273;-71
2021/12/22 06:00:07;;;;;;;3.22;3.03;;;22.10;42.50;;;;;;5041089;28;20188;-72
2021/12/22 06:02:38;;;;;;;3.40;2.70;;;22.10;42.40;;;;;;5075682;28;20696;-71
2021/12/22 06:05:05;;;;;;;3.08;2.85;;;22.10;42.60;;;;;;5075559;28;20555;-71
2021/12/22 06:07:31;;;;;;;3.25;2.95;;;22.10;42.60;;;;;;5064414;28;20169;-71
2021/12/22 06:09:57;;;;;;;2.92;2.72;;;22.10;42.60;;;;;;5077881;28;20188;-72
2021/12/22 06:12:22;;;;;;;4.03;3.35;;;22.10;42.50;;;;;;5083127;28;20228;-72
2021/12/22 06:14:48;;;;;;;3.20;3.00;;;22.10;42.30;;;;;;5079229;28;20181;-72
2021/12/22 06:17:14;;;;;;;3.13;2.83;;;22.10;42.50;;;;;;5093578;28;20185;-71
2021/12/22 06:19:40;;;;;;;3.03;2.72;;;22.00;42.40;;;;;;5076782;28;20184;-71
2021/12/22 06:22:06;;;;;;;3.25;3.05;;;22.00;42.40;;;;;;5076801;28;20264;-72
2021/12/22 06:24:31;;;;;;;3.30;3.10;;;22.00;42.50;;;;;;5077043;28;20663;-72
2021/12/22 06:26:58;;;;;;;3.13;2.92;;;22.00;42.40;;;;;;5077471;28;20181;-71
2021/12/22 06:29:25;;;;;;;2.72;2.53;;;22.00;42.50;;;;;;5077061;28;20192;-72
2021/12/22 06:31:52;;;;;;;3.40;3.10;;;22.10;42.50;;;;;;5077322;28;20181;-71
2021/12/22 06:34:18;;;;;;;3.10;2.83;;;22.00;42.40;;;;;;5094022;28;20189;-71
2021/12/22 06:36:44;;;;;;;2.95;2.70;;;22.00;42.50;;;;;;5076620;28;20223;-71
2021/12/22 06:39:10;;;;;;;2.78;2.58;;;22.10;42.60;;;;;;5076314;28;20181;-72
2021/12/22 06:41:37;;;;;;;3.08;2.83;;;22.00;42.50;;;;;;5076498;28;20187;-71
2021/12/22 06:44:05;;;;;;;3.35;3.10;;;22.10;42.60;;;;;;5076262;28;20231;-70
2021/12/22 06:46:31;;;;;;;3.60;3.30;;;22.00;42.50;;;;;;5060155;28;20236;-72
2021/12/22 06:48:57;;;;;;;3.10;2.90;;;22.00;42.40;;;;;;5093150;28;20188;-72
2021/12/22 06:51:23;;;;;;;3.17;2.92;;;22.10;42.50;;;;;;5076400;28;20198;-72
2021/12/22 06:53:48;;;;;;;2.80;2.60;;;22.00;42.40;;;;;;5093248;28;20201;-72
2021/12/22 06:56:14;;;;;;;3.40;3.10;;;22.00;42.40;;;;;;5075826;28;20200;-71
2021/12/22 06:58:40;;;;;;;3.00;2.80;;;22.10;42.30;;;;;;5075935;28;20185;-71
2021/12/22 07:01:06;;;;;;;3.20;3.00;;;22.00;42.20;;;;;;5076095;28;20197;-71
2021/12/22 07:03:31;;;;;;;3.30;3.00;;;22.00;42.10;;;;;;5092829;28;20216;-71
2021/12/22 07:05:57;;;;;;;3.28;3.08;;;22.10;42.40;;;;;;5076134;28;20267;-71
2021/12/22 07:08:23;;;;;;;3.63;3.28;;;22.00;42.20;;;;;;5059096;28;20189;-71
2021/12/22 07:10:49;;;;;;;3.53;3.28;;;22.00;42.20;;;;;;5075896;28;20216;-71
2021/12/22 07:13:15;;;;;;;3.60;3.33;;;22.00;42.20;;;;;;5075863;28;20209;-72
2021/12/22 07:15:43;;;;;;;3.53;3.22;;;22.00;42.10;;;;;;5059141;28;20239;-72
2021/12/22 07:18:11;;;;;;;3.08;2.88;;;22.00;42.20;;;;;;5093689;28;20184;-71
2021/12/22 07:20:37;;;;;;;2.90;2.70;;;22.00;42.20;;;;;;5059145;28;20594;-72
2021/12/22 07:23:04;;;;;;;3.45;3.15;;;22.00;42.80;;;;;;5075574;28;20213;-72
2021/12/22 07:25:30;;;;;;;3.20;3.00;;;22.00;42.30;;;;;;5076115;28;20226;-71
2021/12/22 07:27:56;;;;;;;3.28;2.97;;;22.00;42.30;;;;;;5092244;28;20238;-71
2021/12/22 07:30:22;;;;;;;3.28;3.08;;;22.00;42.30;;;;;;5059184;28;20180;-72
2021/12/22 07:32:49;;;;;;;3.08;2.88;;;22.00;42.30;;;;;;5075599;28;20300;-72
2021/12/22 07:35:27;;;;;;;3.35;3.10;;;22.00;42.30;;;;;;5075276;28;20616;-72
2021/12/22 07:38:24;;;;;;;3.38;3.08;;;22.00;42.30;;;;;;5058776;28;20656;-71
2021/12/22 07:40:56;;;;;;;3.90;3.42;;;22.00;42.10;;;;;;5075539;28;20306;-72
2021/12/22 07:43:24;;;;;;;3.53;3.25;;;22.00;42.00;;;;;;5093234;28;20224;-72
2021/12/22 07:45:50;;;;;;;3.63;3.33;;;22.10;42.20;;;;;;5075303;28;20217;-72
2021/12/22 07:48:16;;;;;;;3.67;3.38;;;22.00;41.90;;;;;;5058346;28;20184;-72
2021/12/22 07:50:43;;;;;;;2.92;2.72;;;22.00;42.10;;;;;;5092065;28;20181;-72
2021/12/22 07:53:08;;;;;;;3.45;3.22;;;22.00;42.10;;;;;;5075062;28;20277;-72
2021/12/22 07:55:35;;;;;;;3.22;3.00;;;22.00;42.10;;;;;;5058741;28;20193;-72
2021/12/22 07:58:01;;;;;;;3.35;3.15;;;22.00;42.10;;;;;;5091726;28;20230;-71
2021/12/22 08:00:27;;;;;;;3.15;2.85;;;22.00;42.20;;;;;;5092053;28;20185;-71
2021/12/22 08:02:54;;;;;;;3.42;3.15;;;22.00;42.10;;;;;;5093022;28;20213;-71
2021/12/22 08:05:20;;;;;;;3.60;3.30;;;22.00;42.20;;;;;;5074880;28;20237;-71
2021/12/22 08:07:46;;;;;;;3.20;3.00;;;22.00;42.10;;;;;;5074050;28;20189;-71
2021/12/22 08:10:12;;;;;;;3.13;2.92;;;22.00;42.10;;;;;;5091789;28;20181;-72
2021/12/22 08:12:38;;;;;;;3.38;3.17;;;22.00;42.20;;;;;;5071553;28;20221;-71
2021/12/22 08:15:04;;;;;;;4.07;3.67;;;22.10;42.20;;;;;;5074754;28;20176;-71
2021/12/22 08:17:32;;;;;;;3.10;2.90;;;22.10;42.20;;;;;;5074708;28;20192;-71
2021/12/22 08:19:59;;;;;;;3.78;3.47;;;22.10;42.20;;;;;;5073617;28;20191;-72
2021/12/22 08:22:26;;;;;;;4.00;3.70;;;22.10;42.20;;;;;;5053758;28;20231;-70
2021/12/22 08:24:52;;;;;;;3.63;3.33;;;22.10;42.20;;;;;;5070787;28;20185;-70
2021/12/22 08:27:21;;;;;;;3.97;3.67;;;22.00;42.00;;;;;;5087651;28;20196;-70
2021/12/22 08:29:48;;;;;;;4.03;3.63;;;22.10;42.10;;;;;;5059559;28;20257;-71
2021/12/22 08:32:17;;;;;;;3.70;3.40;;;22.00;42.00;;;;;;5074345;28;20606;-71
2021/12/22 08:34:46;;;;;;;3.67;3.38;;;22.00;42.00;;;;;;5057583;28;20181;-71
2021/12/22 08:39:57;;;;;;;3.75;3.45;;;22.00;41.90;;;;;;5074351;28;20180;-71
2021/12/22 08:42:24;;;;;;;3.78;3.47;;;22.00;42.00;;;;;;5073854;28;20254;-71
2021/12/22 08:44:51;;;;;;;4.03;3.72;;;22.10;42.10;;;;;;5079272;28;20181;-71
2021/12/22 08:47:17;;;;;;;4.18;3.78;;;22.00;42.00;;;;;;5072038;28;20184;-71
2021/12/22 08:49:45;;;;;;;4.35;3.95;;;22.00;42.00;;;;;;5059334;28;20185;-71
2021/12/22 08:52:11;;;;;;;3.47;3.25;;;22.10;42.10;;;;;;5090582;28;20204;-71
2021/12/22 08:54:37;;;;;;;3.85;3.53;;;22.10;42.10;;;;;;5074748;28;20235;-71
2021/12/22 08:57:04;;;;;;;3.95;3.65;;;22.10;42.10;;;;;;5070695;28;20280;-71
2021/12/22 08:59:30;;;;;;;4.25;3.92;;;22.10;42.10;;;;;;5053849;28;20207;-71
2021/12/22 09:01:56;;;;;;;3.90;3.60;;;22.10;42.10;;;;;;5053621;28;20203;-71
2021/12/22 09:04:22;;;;;;;3.90;3.60;;;22.10;42.10;;;;;;5053785;28;20189;-71
2021/12/22 09:06:50;;;;;;;4.00;3.70;;;22.10;42.10;;;;;;5053888;28;20680;-70
2021/12/22 09:09:18;;;;;;;3.85;3.55;;;22.10;42.10;;;;;;5070240;28;20182;-71
2021/12/22 09:11:44;;;;;;;3.55;3.25;;;22.10;42.10;;;;;;5054811;28;20227;-71
2021/12/22 09:14:11;;;;;;;3.97;3.67;;;22.10;42.00;;;;;;5056759;28;20239;-71
2021/12/22 09:16:39;;;;;;;3.58;3.28;;;22.10;42.00;;;;;;5091828;28;20276;-71
2021/12/22 09:19:07;;;;;;;3.50;3.30;;;22.10;42.00;;;;;;5073214;28;20264;-71
2021/12/22 09:21:34;;;;;;;3.65;3.42;;;22.10;42.10;;;;;;5091610;28;20196;-71
2021/12/22 09:24:01;;;;;;;3.88;3.58;;;22.10;42.10;;;;;;5091749;28;20213;-71
2021/12/22 09:26:27;;;;;;;3.22;3.00;;;22.10;41.80;;;;;;5057161;28;20180;-71
2021/12/22 09:28:55;;;;;;;3.53;3.33;;;22.00;42.00;;;;;;5073306;28;20229;-70
2021/12/22 09:31:22;;;;;;;3.65;3.30;;;22.10;42.10;;;;;;5068686;28;20238;-71
2021/12/22 09:33:48;;;;;;;3.90;3.60;;;22.10;42.10;;;;;;5072284;28;20206;-71
2021/12/22 09:36:16;;;;;;;3.70;3.40;;;22.10;42.60;;;;;;5037043;28;20181;-71
2021/12/22 09:38:43;;;;;;;3.05;2.85;;;22.10;42.10;;;;;;5053269;28;20191;-71
2021/12/22 09:41:11;;;;;;;3.30;3.10;;;22.10;42.00;;;;;;5053707;28;20181;-71
2021/12/22 09:43:38;;;;;;;3.35;3.15;;;22.10;42.10;;;;;;5036624;28;20213;-71
2021/12/22 09:46:09;;;;;;;3.75;3.45;;;22.10;42.10;;;;;;5053325;28;20189;-71
2021/12/22 09:53:43;;;;;;;3.28;3.00;;;22.10;42.10;;;;;;5071120;28;20259;-71
2021/12/22 09:56:11;;;;;;;3.58;3.35;;;22.10;42.00;;;;;;5053221;28;20181;-71
2021/12/22 09:58:41;;;;;;;3.53;3.30;;;22.10;42.00;;;;;;5036660;28;20269;-72
2021/12/22 10:01:07;;;;;;;3.60;3.30;;;22.10;42.00;;;;;;5053430;28;20672;-72
2021/12/22 10:03:33;;;;;;;3.20;2.90;;;22.20;42.10;;;;;;5036369;28;20218;-71
2021/12/22 10:05:58;;;;;;;3.22;2.92;;;22.10;42.20;;;;;;5044619;28;20213;-71
2021/12/22 10:08:27;;;;;;;3.30;3.10;;;22.10;41.90;;;;;;5053268;28;20653;-71
2021/12/22 10:11:09;;;;;;;3.35;3.10;;;22.10;41.90;;;;;;5053297;28;20629;-71
2021/12/22 10:13:43;;;;;;;3.22;2.80;;;22.10;42.00;;;;;;5052898;28;20711;-71
2021/12/22 10:16:30;;;;;;;3.15;2.95;;;22.10;42.10;;;;;;5036494;28;20197;-71
2021/12/22 10:19:09;;;;;;;3.60;3.30;;;22.10;42.10;;;;;;5053099;28;20193;-71
2021/12/22 10:21:51;;;;;;;3.22;2.97;;;22.10;42.10;;;;;;5036761;28;20207;-72
2021/12/22 10:24:17;;;;;;;3.38;3.17;;;22.10;42.00;;;;;;5070201;28;20209;-71
2021/12/22 10:26:43;;;;;;;3.13;2.92;;;22.10;42.00;;;;;;5072868;28;20231;-71
2021/12/22 10:29:09;;;;;;;3.25;3.03;;;22.10;42.00;;;;;;5056209;28;20185;-71
2021/12/22 10:31:45;;;;;;;3.03;2.83;;;22.10;42.00;;;;;;5059697;28;20208;-71
2021/12/22 10:34:17;;;;;;;3.13;2.90;;;22.10;42.00;;;;;;5060040;28;20233;-71
2021/12/22 10:36:48;;;;;;;2.97;2.78;;;22.10;41.90;;;;;;5093500;28;20177;-71
2021/12/22 10:39:26;;;;;;;3.22;2.97;;;22.10;42.00;;;;;;5094369;28;20192;-71
2021/12/22 10:42:00;;;;;;;3.17;2.97;;;22.20;42.10;;;;;;5059682;28;20185;-71
2021/12/22 10:44:38;;;;;;;3.08;2.88;;;22.20;42.10;;;;;;5076358;28;20246;-71
2021/12/22 10:47:20;;;;;;;3.15;2.95;;;22.20;42.10;;;;;;5094555;28;20204;-71
2021/12/22 10:50:05;;;;;;;3.25;3.05;;;22.20;42.10;;;;;;5076386;28;20238;-71
2021/12/22 10:52:33;;;;;;;3.15;2.85;;;22.20;42.00;;;;;;5069587;28;20212;-71
2021/12/22 10:55:09;;;;;;;3.15;2.95;;;22.20;42.10;;;;;;5039760;28;20190;-71
2021/12/22 10:57:38;;;;;;;4.47;2.75;;;22.20;42.00;;;;;;5055907;28;20688;-71
2021/12/22 11:00:28;;;;;;;3.08;2.83;;;22.20;42.20;;;;;;5056044;28;20186;-70
2021/12/22 11:03:13;;;;;;;3.10;2.90;;;22.20;42.10;;;;;;5055791;28;20340;-71
2021/12/22 11:05:51;;;;;;;2.95;2.75;;;22.20;42.10;;;;;;5056078;28;20657;-71
2021/12/22 11:08:24;;;;;;;3.17;2.97;;;22.20;42.20;;;;;;5055643;28;20181;-70
2021/12/22 11:10:52;;;;;;;3.45;3.17;;;22.20;42.10;;;;;;5072925;28;20181;-71
2021/12/22 11:13:24;;;;;;;3.20;3.00;;;22.20;42.10;;;;;;5084225;22;20223;-71
2021/12/22 11:15:53;;;;;;;3.50;2.92;;;22.20;42.00;;;;;;5034193;28;20217;-71
2021/12/22 11:18:34;;;;;;;3.08;2.72;;;22.20;41.90;;;;;;5033034;28;20186;-71
2021/12/22 11:21:21;;;;;;;3.20;2.90;;;22.20;42.10;;;;;;5016687;28;20185;-71
2021/12/22 11:23:47;;;;;;;3.00;2.80;;;22.20;42.00;;;;;;5016513;28;20226;-71
2021/12/22 11:26:13;;;;;;;3.60;3.30;;;22.20;42.70;;;;;;5033303;28;20274;-71
2021/12/22 11:28:40;;;;;;;3.47;3.17;;;22.20;42.10;;;;;;5034131;28;20266;-71
2021/12/22 11:31:08;;;;;;;3.13;2.92;;;22.20;42.10;;;;;;5032939;28;20187;-71
2021/12/22 11:33:35;;;;;;;3.30;3.03;;;22.20;42.00;;;;;;5016660;28;20214;-71
2021/12/22 11:36:03;;;;;;;2.97;2.78;;;22.20;42.10;;;;;;5049493;28;20189;-71
2021/12/22 11:38:31;;;;;;;3.03;2.83;;;22.20;42.10;;;;;;5032750;28;20278;-71
2021/12/22 11:41:11;;;;;;;2.80;2.60;;;22.20;42.10;;;;;;5032802;28;20224;-71
2021/12/22 11:43:40;;;;;;;3.47;3.17;;;22.20;42.00;;;;;;5032793;28;20225;-71
2021/12/22 11:46:07;;;;;;;3.60;3.30;;;22.20;42.00;;;;;;5032868;28;20207;-71
2021/12/22 11:48:35;;;;;;;2.83;2.63;;;22.20;42.00;;;;;;5032559;28;20195;-72
2021/12/22 11:51:01;;;;;;;3.38;3.17;;;22.30;42.10;;;;;;5032695;28;20202;-70
2021/12/22 11:53:55;;;;;;;3.47;3.17;;;22.20;42.00;;;;;;5032731;28;20249;-69
2021/12/22 11:56:46;;;;;;;3.30;3.00;;;22.20;42.00;;;;;;5016411;28;20183;-71
2021/12/22 11:59:47;;;;;;;3.38;3.13;;;22.20;42.10;;;;;;5032656;28;20172;-71
2021/12/22 12:02:19;;;;;;;3.50;3.20;;;22.20;42.30;;;;;;4995119;28;20198;-71
2021/12/22 12:04:48;;;;;;;3.78;3.47;;;22.20;42.20;;;;;;5009547;28;20196;-71
2021/12/22 12:07:44;;;;;;;3.80;3.45;;;22.30;42.30;;;;;;5015814;28;20191;-72
2021/12/22 12:10:42;;;;;;;3.70;3.40;;;22.20;42.20;;;;;;5032292;28;20373;-72
2021/12/22 12:13:23;;;;;;;4.40;4.00;;;22.30;42.30;;;;;;5048536;28;20222;-71
2021/12/22 12:21:56;;;;;;;3.72;3.38;;;22.20;42.20;;;;;;5031836;28;20184;-70
2021/12/22 12:24:42;;;;;;;4.07;3.72;;;22.20;42.20;;;;;;5015025;28;20682;-70
2021/12/22 12:27:36;;;;;;;4.95;4.55;;;22.30;42.30;;;;;;5016217;28;20302;-71
2021/12/22 12:30:36;;;;;;;4.35;3.65;;;22.30;42.30;;;;;;5048375;28;20187;-71
2021/12/22 12:33:04;;;;;;;3.67;3.38;;;22.30;42.30;;;;;;5032857;28;20213;-71
2021/12/22 12:35:34;;;;;;;4.28;3.88;;;22.30;42.30;;;;;;5048404;28;20244;-70
2021/12/22 12:38:16;;;;;;;4.13;3.72;;;22.30;42.20;;;;;;5032741;28;20163;-70
2021/12/22 12:43:52;;;;;;;3.88;3.58;;;22.30;42.20;;;;;;5032658;28;20222;-70
2021/12/22 12:46:20;;;;;;;3.83;3.53;;;22.30;42.20;;;;;;5032700;28;20298;-71
2021/12/22 12:48:49;;;;;;;4.00;3.60;;;22.30;42.20;;;;;;5032505;28;20195;-71
2021/12/22 12:51:59;;;;;;;3.83;3.53;;;22.30;42.20;;;;;;5031673;28;20206;-71
2021/12/22 12:54:33;;;;;;;4.10;3.70;;;22.30;42.20;;;;;;5025907;28;20238;-72
2021/12/22 12:57:25;;;;;;;4.50;4.10;;;22.30;42.30;;;;;;5030605;28;20182;-72
2021/12/22 12:59:54;;;;;;;4.22;3.88;;;22.30;42.20;;;;;;5043121;28;20218;-72
2021/12/22 13:02:30;;;;;;;4.00;3.63;;;22.30;42.20;;;;;;5031004;28;20202;-71
2021/12/22 13:05:05;;;;;;;4.00;3.70;;;22.30;42.20;;;;;;5031177;28;20191;-71
2021/12/22 13:07:32;;;;;;;4.03;3.63;;;22.30;42.20;;;;;;5031042;28;20182;-72
2021/12/22 13:10:03;;;;;;;3.75;3.45;;;22.30;42.20;;;;;;5031527;28;20669;-72
2021/12/22 13:13:30;;;;;;;4.13;3.72;;;22.30;42.20;;;;;;5030884;28;20186;-72
2021/12/22 13:18:14;;;;;;;3.72;3.42;;;22.30;42.20;;;;;;5032207;28;20190;-72
2021/12/22 13:20:41;;;;;;;3.92;3.63;;;22.30;42.20;;;;;;5031457;28;20171;-72
2021/12/22 13:23:20;;;;;;;3.67;3.38;;;22.30;42.20;;;;;;5031202;28;20717;-72
2021/12/22 13:25:53;;;;;;;4.03;3.40;;;22.30;42.20;;;;;;5031139;28;20179;-71
2021/12/22 13:28:28;;;;;;;3.97;3.58;;;22.30;42.20;;;;;;5031082;28;20172;-71
2021/12/22 13:31:05;;;;;;;3.88;3.58;;;22.30;42.20;;;;;;5032503;28;20174;-70
2021/12/22 13:33:41;;;;;;;4.22;3.92;;;22.30;42.20;;;;;;5031052;28;20206;-70